aviador You're here:

KGPH Decoded Metar

in
Report Time2017-06-27 04:55:00
UTC Time2017-06-27 05:18:40
Flight Rules ifr IFR
WindCalm
Visibility4023 m
Phenomena:Mist
Clouds:N/A
CeilingNone
Temp15°C
Dew Point15°C (100% RH)
QNH1021 hPa
Raw Report
KGPH 270455Z AUTO 00000KT 2 1/2SM BR CLR 15/15 A3015 RMK AO2 VIS
3/4V5=

Extra information for KGPH:More info

Social comments